Ana Sayfa
METAR-TAF:

METAR-TAF

Havaalanları :

Rønne, Danimarka

Enlem: 55-04N, Boylam: 014-45E, yükseklik: 16 m

Güncel hava durumu gözlemi

Rapor saat 04:50 UTC de 37 dakika önce yapıldı.
Rüzgar batıdan 21 kt
Sıcaklık 5°C
Nem 93%
Basınç 1015 hPa
Görüş mesafesi: 8000 m
hafif yağmur

METAR: EKRN 010450Z AUTO 26021KT 8000 -RA OVC011/// 05/04 Q1015

Saat: 07:27 (05:27 UTC)

Tahmin

Rapor saat 03:51 UTC de 1 saat ve 36 dakika önce yapıldı.
Ayın 01'si saat 04 UTC'den ayın 01'si saat 12 UTC'ye kadar geçerli Tahmin
Rüzgar batıdan 20 kt
Görüş mesafesi 10 km veya daha fazla
2000 ft yükseklikte parçalı çok bulutlu
Geçici
ayın 01'si saat 04 UTC'den ayın 01'si saat 12 UTC'ye kadar
1000 ft yükseklikte parçalı çok bulutlu
1800 ft yükseklikte parçalı bulutlu, Yükselen kümülüs.

TAF: EKRN 010351Z 0104/0112 27020KT 9999 BKN020 TEMPO 0104/0112 BKN010 SCT018TCU

4.000'den fazla havaalanı için hava durumu gözlemleri ve tahminleri (METAR ve TAF raporları).

Kullanılabilir istasyonlar harita üzerinde sarı ve kırmızı noktalarla gösterilir.

İstasyonun adını görmek için fareyi noktanın üzerinde gezdirin.

Sonrasında hava gözlem ve tahminlerini görmek için tıklayın.

Haritayı değiştirmek için: yaklaştırmak için siyah artı işaretli yeşil düğmeye ve uzaklaştırmak için de eksi işaretli düğmeye hızla tıklayın; bitişik haritalar için yeşil okları kullanın.


METAR-TAF: